Monterey (MRY/KMRY)

Map

Destinations

Information

Location
Monterey, CA
Local Time
15:37 / 3:37 pm
GMT Time
23:37 / 11:37 pm
Gates
1
No FAA reported delays
METAR KMRY 182254Z VRB06KT 10SM HZ SCT028 OVC036 17/13 A3006 RMK AO2 SLP190 T01720128
TAF KMRY 182224Z 1822/1918 24010KT 6SM BR VCSH SCT015 BKN040 FM190000 22005KT 6SM -SHRA BR SCT010 OVC020 FM191000 22008KT 6SM -SHRA BR FEW010 SCT050 OVC200 FM191400 14005KT 6SM BR VCSH SCT010 BKN030